sensor_id;sensor_type;location;lat;lon;timestamp;P1;durP1;ratioP1;P2;durP2;ratioP2
70010;SDS011;59543;37.950;-122.338;2022-11-30T00:00:57;13.50;;;1.55;;
70010;SDS011;59543;37.950;-122.338;2022-11-30T00:03:23;11.55;;;1.27;;
70010;SDS011;59543;37.950;-122.338;2022-11-30T00:05:49;13.40;;;1.40;;
70010;SDS011;59543;37.950;-122.338;2022-11-30T00:08:16;9.23;;;1.08;;
70010;SDS011;59543;37.950;-122.338;2022-11-30T00:10:43;8.40;;;1.20;;
70010;SDS011;59543;37.950;-122.338;2022-11-30T00:13:09;7.68;;;1.30;;
70010;SDS011;59543;37.950;-122.338;2022-11-30T00:15:36;11.02;;;1.50;;
70010;SDS011;59543;37.950;-122.338;2022-11-30T00:18:02;7.00;;;1.30;;
70010;SDS011;59543;37.950;-122.338;2022-11-30T00:20:28;10.60;;;1.52;;
70010;SDS011;59543;37.950;-122.338;2022-11-30T00:22:55;3.33;;;1.23;;
70010;SDS011;59543;37.950;-122.338;2022-11-30T00:25:22;12.95;;;1.50;;
70010;SDS011;59543;37.950;-122.338;2022-11-30T00:27:49;6.38;;;1.30;;
70010;SDS011;59543;37.950;-122.338;2022-11-30T00:30:15;2.75;;;1.02;;
70010;SDS011;59543;37.950;-122.338;2022-11-30T00:32:41;7.05;;;1.52;;
70010;SDS011;59543;37.950;-122.338;2022-11-30T00:35:08;8.85;;;1.30;;
70010;SDS011;59543;37.950;-122.338;2022-11-30T00:37:34;7.70;;;1.38;;
70010;SDS011;59543;37.950;-122.338;2022-11-30T00:40:00;4.53;;;1.40;;
70010;SDS011;59543;37.950;-122.338;2022-11-30T00:42:26;4.40;;;1.23;;
70010;SDS011;59543;37.950;-122.338;2022-11-30T00:44:52;4.78;;;1.30;;
70010;SDS011;59543;37.950;-122.338;2022-11-30T00:47:19;4.72;;;1.17;;
70010;SDS011;59543;37.950;-122.338;2022-11-30T00:49:45;5.10;;;1.10;;
70010;SDS011;59543;37.950;-122.338;2022-11-30T00:52:11;3.78;;;1.20;;
70010;SDS011;59543;37.950;-122.338;2022-11-30T00:54:37;6.22;;;1.15;;
70010;SDS011;59543;37.950;-122.338;2022-11-30T00:57:04;7.90;;;1.10;;
70010;SDS011;59543;37.950;-122.338;2022-11-30T00:59:30;8.27;;;1.15;;
70010;SDS011;59543;37.950;-122.338;2022-11-30T01:01:56;4.32;;;0.95;;
70010;SDS011;59543;37.950;-122.338;2022-11-30T01:04:22;7.47;;;1.35;;
70010;SDS011;59543;37.950;-122.338;2022-11-30T01:06:48;18.30;;;1.70;;
70010;SDS011;59543;37.950;-122.338;2022-11-30T01:09:14;7.75;;;1.60;;
70010;SDS011;59543;37.950;-122.338;2022-11-30T01:11:41;7.72;;;1.60;;
70010;SDS011;59543;37.950;-122.338;2022-11-30T01:14:07;8.95;;;1.77;;
70010;SDS011;59543;37.950;-122.338;2022-11-30T01:16:33;8.57;;;1.55;;
70010;SDS011;59543;37.950;-122.338;2022-11-30T01:18:59;7.30;;;1.98;;
70010;SDS011;59543;37.950;-122.338;2022-11-30T01:21:27;5.50;;;1.92;;
70010;SDS011;59543;37.950;-122.338;2022-11-30T01:23:54;14.75;;;2.30;;
70010;SDS011;59543;37.950;-122.338;2022-11-30T01:26:20;6.65;;;2.17;;
70010;SDS011;59543;37.950;-122.338;2022-11-30T01:28:53;8.75;;;2.90;;
70010;SDS011;59543;37.950;-122.338;2022-11-30T01:31:20;6.50;;;2.58;;
70010;SDS011;59543;37.950;-122.338;2022-11-30T01:33:48;10.65;;;2.60;;
70010;SDS011;59543;37.950;-122.338;2022-11-30T01:36:20;9.52;;;2.22;;
70010;SDS011;59543;37.950;-122.338;2022-11-30T01:38:50;3.95;;;2.00;;
70010;SDS011;59543;37.950;-122.338;2022-11-30T01:41:22;16.48;;;2.10;;
70010;SDS011;59543;37.950;-122.338;2022-11-30T01:43:54;5.30;;;1.58;;
70010;SDS011;59543;37.950;-122.338;2022-11-30T01:49:35;7.25;;;2.10;;
70010;SDS011;59543;37.950;-122.338;2022-11-30T01:51:47;4.97;;;2.55;;
70010;SDS011;59543;37.950;-122.338;2022-11-30T01:54:16;10.55;;;3.38;;
70010;SDS011;59543;37.950;-122.338;2022-11-30T01:56:48;8.85;;;3.83;;
70010;SDS011;59543;37.950;-122.338;2022-11-30T01:59:18;6.85;;;3.20;;
70010;SDS011;59543;37.950;-122.338;2022-11-30T02:01:47;11.50;;;3.50;;
70010;SDS011;59543;37.950;-122.338;2022-11-30T02:04:14;8.55;;;3.20;;
70010;SDS011;59543;37.950;-122.338;2022-11-30T02:06:47;8.05;;;2.97;;
70010;SDS011;59543;37.950;-122.338;2022-11-30T02:09:14;7.05;;;2.70;;
70010;SDS011;59543;37.950;-122.338;2022-11-30T02:11:42;9.00;;;3.20;;
70010;SDS011;59543;37.950;-122.338;2022-11-30T02:17:01;9.15;;;2.72;;
70010;SDS011;59543;37.950;-122.338;2022-11-30T02:31:24;11.32;;;2.55;;
70010;SDS011;59543;37.950;-122.338;2022-11-30T02:33:56;3.70;;;1.73;;
70010;SDS011;59543;37.950;-122.338;2022-11-30T02:36:24;6.03;;;1.98;;
70010;SDS011;59543;37.950;-122.338;2022-11-30T02:38:52;3.78;;;1.20;;
70010;SDS011;59543;37.950;-122.338;2022-11-30T02:41:18;6.43;;;1.65;;
70010;SDS011;59543;37.950;-122.338;2022-11-30T02:46:53;5.45;;;1.60;;
70010;SDS011;59543;37.950;-122.338;2022-11-30T02:56:47;12.25;;;2.22;;
70010;SDS011;59543;37.950;-122.338;2022-11-30T02:59:14;5.57;;;1.75;;
70010;SDS011;59543;37.950;-122.338;2022-11-30T03:01:40;8.75;;;2.25;;
70010;SDS011;59543;37.950;-122.338;2022-11-30T03:04:06;3.22;;;1.40;;
70010;SDS011;59543;37.950;-122.338;2022-11-30T03:08:58;6.43;;;1.70;;
70010;SDS011;59543;37.950;-122.338;2022-11-30T03:11:24;8.98;;;1.98;;
70010;SDS011;59543;37.950;-122.338;2022-11-30T03:13:51;4.93;;;1.83;;
70010;SDS011;59543;37.950;-122.338;2022-11-30T03:16:17;4.60;;;1.90;;
70010;SDS011;59543;37.950;-122.338;2022-11-30T03:21:10;7.80;;;2.13;;
70010;SDS011;59543;37.950;-122.338;2022-11-30T03:23:37;6.32;;;2.38;;
70010;SDS011;59543;37.950;-122.338;2022-11-30T03:26:05;8.45;;;2.28;;
70010;SDS011;59543;37.950;-122.338;2022-11-30T03:28:33;9.02;;;2.13;;
70010;SDS011;59543;37.950;-122.338;2022-11-30T03:31:02;6.97;;;2.35;;
70010;SDS011;59543;37.950;-122.338;2022-11-30T03:33:29;7.28;;;2.35;;
70010;SDS011;59543;37.950;-122.338;2022-11-30T03:35:59;9.15;;;2.53;;
70010;SDS011;59543;37.950;-122.338;2022-11-30T03:38:30;9.43;;;2.25;;
70010;SDS011;59543;37.950;-122.338;2022-11-30T03:41:10;7.97;;;2.20;;
70010;SDS011;59543;37.950;-122.338;2022-11-30T03:43:39;6.90;;;1.98;;
70010;SDS011;59543;37.950;-122.338;2022-11-30T03:46:05;5.57;;;2.10;;
70010;SDS011;59543;37.950;-122.338;2022-11-30T03:50:57;3.88;;;1.70;;
70010;SDS011;59543;37.950;-122.338;2022-11-30T03:53:24;9.40;;;2.70;;
70010;SDS011;59543;37.950;-122.338;2022-11-30T03:55:54;11.32;;;2.38;;
70010;SDS011;59543;37.950;-122.338;2022-11-30T03:58:22;6.93;;;2.50;;
70010;SDS011;59543;37.950;-122.338;2022-11-30T04:00:49;12.05;;;2.20;;
70010;SDS011;59543;37.950;-122.338;2022-11-30T04:03:24;7.50;;;2.25;;
70010;SDS011;59543;37.950;-122.338;2022-11-30T04:08:16;8.40;;;2.20;;
70010;SDS011;59543;37.950;-122.338;2022-11-30T04:10:44;10.85;;;2.30;;
70010;SDS011;59543;37.950;-122.338;2022-11-30T04:13:12;9.82;;;2.90;;
70010;SDS011;59543;37.950;-122.338;2022-11-30T04:15:38;5.53;;;2.67;;
70010;SDS011;59543;37.950;-122.338;2022-11-30T04:20:30;6.75;;;2.25;;
70010;SDS011;59543;37.950;-122.338;2022-11-30T04:25:22;7.38;;;2.38;;
70010;SDS011;59543;37.950;-122.338;2022-11-30T04:27:49;9.65;;;2.75;;
70010;SDS011;59543;37.950;-122.338;2022-11-30T04:32:41;10.25;;;3.03;;
70010;SDS011;59543;37.950;-122.338;2022-11-30T04:35:08;9.35;;;3.47;;
70010;SDS011;59543;37.950;-122.338;2022-11-30T04:37:35;8.10;;;3.47;;
70010;SDS011;59543;37.950;-122.338;2022-11-30T04:40:02;10.48;;;4.00;;
70010;SDS011;59543;37.950;-122.338;2022-11-30T04:42:29;14.75;;;3.88;;
70010;SDS011;59543;37.950;-122.338;2022-11-30T04:47:21;9.93;;;4.00;;
70010;SDS011;59543;37.950;-122.338;2022-11-30T04:49:47;5.78;;;3.80;;
70010;SDS011;59543;37.950;-122.338;2022-11-30T04:54:39;13.70;;;4.47;;
70010;SDS011;59543;37.950;-122.338;2022-11-30T04:59:31;11.13;;;4.13;;
70010;SDS011;59543;37.950;-122.338;2022-11-30T05:01:57;10.10;;;3.88;;
70010;SDS011;59543;37.950;-122.338;2022-11-30T05:06:49;10.15;;;3.55;;
70010;SDS011;59543;37.950;-122.338;2022-11-30T05:09:18;12.45;;;3.80;;
70010;SDS011;59543;37.950;-122.338;2022-11-30T05:14:12;6.88;;;3.38;;
70010;SDS011;59543;37.950;-122.338;2022-11-30T05:16:39;8.23;;;3.70;;
70010;SDS011;59543;37.950;-122.338;2022-11-30T05:21:31;4.93;;;3.00;;
70010;SDS011;59543;37.950;-122.338;2022-11-30T05:23:57;15.52;;;3.58;;
70010;SDS011;59543;37.950;-122.338;2022-11-30T05:28:49;8.65;;;3.20;;
70010;SDS011;59543;37.950;-122.338;2022-11-30T05:31:15;8.52;;;3.88;;
70010;SDS011;59543;37.950;-122.338;2022-11-30T05:36:07;8.13;;;3.53;;
70010;SDS011;59543;37.950;-122.338;2022-11-30T05:38:33;7.07;;;3.75;;
70010;SDS011;59543;37.950;-122.338;2022-11-30T05:43:26;9.70;;;3.83;;
70010;SDS011;59543;37.950;-122.338;2022-11-30T05:46:03;10.35;;;4.03;;
70010;SDS011;59543;37.950;-122.338;2022-11-30T05:48:30;10.48;;;3.90;;
70010;SDS011;59543;37.950;-122.338;2022-11-30T05:51:04;10.63;;;3.78;;
70010;SDS011;59543;37.950;-122.338;2022-11-30T05:53:31;7.90;;;4.43;;
70010;SDS011;59543;37.950;-122.338;2022-11-30T05:56:02;11.10;;;4.63;;
70010;SDS011;59543;37.950;-122.338;2022-11-30T05:58:29;11.57;;;4.93;;
70010;SDS011;59543;37.950;-122.338;2022-11-30T06:00:55;10.65;;;4.15;;
70010;SDS011;59543;37.950;-122.338;2022-11-30T06:05:51;9.13;;;4.63;;
70010;SDS011;59543;37.950;-122.338;2022-11-30T06:08:17;9.48;;;4.88;;
70010;SDS011;59543;37.950;-122.338;2022-11-30T06:10:44;10.93;;;4.80;;
70010;SDS011;59543;37.950;-122.338;2022-11-30T06:15:36;10.02;;;4.13;;
70010;SDS011;59543;37.950;-122.338;2022-11-30T06:18:03;11.15;;;3.67;;
70010;SDS011;59543;37.950;-122.338;2022-11-30T06:20:30;9.68;;;4.22;;
70010;SDS011;59543;37.950;-122.338;2022-11-30T06:22:56;12.25;;;4.05;;
70010;SDS011;59543;37.950;-122.338;2022-11-30T06:25:23;7.07;;;3.83;;
70010;SDS011;59543;37.950;-122.338;2022-11-30T06:27:50;9.85;;;4.03;;
70010;SDS011;59543;37.950;-122.338;2022-11-30T06:30:17;7.22;;;3.58;;
70010;SDS011;59543;37.950;-122.338;2022-11-30T06:32:46;12.60;;;4.45;;
70010;SDS011;59543;37.950;-122.338;2022-11-30T06:35:14;8.20;;;3.38;;
70010;SDS011;59543;37.950;-122.338;2022-11-30T06:37:41;8.63;;;4.28;;
70010;SDS011;59543;37.950;-122.338;2022-11-30T06:40:08;9.85;;;4.50;;
70010;SDS011;59543;37.950;-122.338;2022-11-30T06:42:36;8.27;;;3.00;;
70010;SDS011;59543;37.950;-122.338;2022-11-30T06:45:03;6.70;;;3.10;;
70010;SDS011;59543;37.950;-122.338;2022-11-30T06:47:31;7.53;;;3.67;;
70010;SDS011;59543;37.950;-122.338;2022-11-30T06:52:23;11.05;;;3.72;;
70010;SDS011;59543;37.950;-122.338;2022-11-30T06:57:15;9.00;;;3.47;;
70010;SDS011;59543;37.950;-122.338;2022-11-30T06:59:42;9.60;;;3.78;;
70010;SDS011;59543;37.950;-122.338;2022-11-30T07:02:10;10.10;;;3.70;;
70010;SDS011;59543;37.950;-122.338;2022-11-30T07:04:37;8.18;;;3.97;;
70010;SDS011;59543;37.950;-122.338;2022-11-30T07:07:04;6.57;;;3.63;;
70010;SDS011;59543;37.950;-122.338;2022-11-30T07:09:34;6.38;;;2.58;;
70010;SDS011;59543;37.950;-122.338;2022-11-30T07:12:01;6.28;;;2.17;;
70010;SDS011;59543;37.950;-122.338;2022-11-30T07:14:28;8.23;;;2.10;;
70010;SDS011;59543;37.950;-122.338;2022-11-30T07:16:55;4.70;;;1.83;;
70010;SDS011;59543;37.950;-122.338;2022-11-30T07:19:22;6.95;;;1.98;;
70010;SDS011;59543;37.950;-122.338;2022-11-30T07:21:48;5.45;;;1.67;;
70010;SDS011;59543;37.950;-122.338;2022-11-30T07:26:59;5.30;;;1.58;;
70010;SDS011;59543;37.950;-122.338;2022-11-30T07:29:27;7.57;;;1.38;;
70010;SDS011;59543;37.950;-122.338;2022-11-30T07:31:54;5.55;;;1.30;;
70010;SDS011;59543;37.950;-122.338;2022-11-30T07:34:20;9.73;;;1.33;;
70010;SDS011;59543;37.950;-122.338;2022-11-30T07:36:47;7.90;;;1.80;;
70010;SDS011;59543;37.950;-122.338;2022-11-30T07:39:13;5.53;;;1.60;;
70010;SDS011;59543;37.950;-122.338;2022-11-30T07:41:40;4.85;;;1.60;;
70010;SDS011;59543;37.950;-122.338;2022-11-30T07:44:07;7.38;;;1.55;;
70010;SDS011;59543;37.950;-122.338;2022-11-30T07:46:34;4.90;;;0.98;;
70010;SDS011;59543;37.950;-122.338;2022-11-30T07:49:05;8.35;;;1.33;;
70010;SDS011;59543;37.950;-122.338;2022-11-30T07:51:33;6.05;;;1.20;;
70010;SDS011;59543;37.950;-122.338;2022-11-30T07:53:59;2.72;;;1.08;;
70010;SDS011;59543;37.950;-122.338;2022-11-30T07:56:26;3.72;;;1.13;;
70010;SDS011;59543;37.950;-122.338;2022-11-30T07:58:54;3.25;;;1.15;;
70010;SDS011;59543;37.950;-122.338;2022-11-30T08:01:23;3.28;;;0.88;;
70010;SDS011;59543;37.950;-122.338;2022-11-30T08:03:50;4.55;;;0.82;;
70010;SDS011;59543;37.950;-122.338;2022-11-30T08:06:22;3.75;;;0.90;;
70010;SDS011;59543;37.950;-122.338;2022-11-30T08:08:50;7.05;;;1.10;;
70010;SDS011;59543;37.950;-122.338;2022-11-30T08:11:19;4.78;;;1.13;;
70010;SDS011;59543;37.950;-122.338;2022-11-30T08:13:47;4.43;;;1.10;;
70010;SDS011;59543;37.950;-122.338;2022-11-30T08:16:14;3.28;;;1.10;;
70010;SDS011;59543;37.950;-122.338;2022-11-30T08:18:45;7.60;;;1.20;;
70010;SDS011;59543;37.950;-122.338;2022-11-30T08:21:15;3.95;;;1.17;;
70010;SDS011;59543;37.950;-122.338;2022-11-30T08:23:47;5.50;;;1.20;;
70010;SDS011;59543;37.950;-122.338;2022-11-30T08:26:16;5.00;;;1.23;;
70010;SDS011;59543;37.950;-122.338;2022-11-30T08:28:44;4.43;;;0.98;;
70010;SDS011;59543;37.950;-122.338;2022-11-30T08:31:17;2.28;;;1.05;;
70010;SDS011;59543;37.950;-122.338;2022-11-30T08:33:49;2.50;;;0.90;;
70010;SDS011;59543;37.950;-122.338;2022-11-30T08:36:20;3.17;;;0.95;;
70010;SDS011;59543;37.950;-122.338;2022-11-30T08:38:47;3.10;;;1.10;;
70010;SDS011;59543;37.950;-122.338;2022-11-30T08:41:15;4.13;;;1.00;;
70010;SDS011;59543;37.950;-122.338;2022-11-30T08:43:44;5.32;;;1.08;;
70010;SDS011;59543;37.950;-122.338;2022-11-30T08:46:11;0.80;;;0.40;;
70010;SDS011;59543;37.950;-122.338;2022-11-30T08:48:38;6.13;;;1.50;;
70010;SDS011;59543;37.950;-122.338;2022-11-30T08:53:32;4.68;;;1.27;;
70010;SDS011;59543;37.950;-122.338;2022-11-30T08:55:59;1.95;;;0.90;;
70010;SDS011;59543;37.950;-122.338;2022-11-30T08:58:31;3.55;;;1.52;;
70010;SDS011;59543;37.950;-122.338;2022-11-30T09:01:09;4.45;;;1.33;;
70010;SDS011;59543;37.950;-122.338;2022-11-30T09:03:38;4.13;;;1.20;;
70010;SDS011;59543;37.950;-122.338;2022-11-30T09:06:11;0.77;;;0.47;;
70010;SDS011;59543;37.950;-122.338;2022-11-30T09:08:46;4.40;;;1.55;;
70010;SDS011;59543;37.950;-122.338;2022-11-30T09:11:18;4.30;;;1.20;;
70010;SDS011;59543;37.950;-122.338;2022-11-30T09:13:46;5.85;;;1.80;;
70010;SDS011;59543;37.950;-122.338;2022-11-30T09:16:13;2.28;;;1.15;;
70010;SDS011;59543;37.950;-122.338;2022-11-30T09:18:41;6.85;;;1.52;;
70010;SDS011;59543;37.950;-122.338;2022-11-30T09:21:09;4.60;;;1.65;;
70010;SDS011;59543;37.950;-122.338;2022-11-30T09:23:37;7.25;;;1.67;;
70010;SDS011;59543;37.950;-122.338;2022-11-30T09:26:06;3.97;;;1.70;;
70010;SDS011;59543;37.950;-122.338;2022-11-30T09:28:35;5.78;;;1.50;;
70010;SDS011;59543;37.950;-122.338;2022-11-30T09:31:04;3.67;;;1.30;;
70010;SDS011;59543;37.950;-122.338;2022-11-30T09:33:37;4.55;;;1.60;;
70010;SDS011;59543;37.950;-122.338;2022-11-30T09:36:05;4.63;;;1.58;;
70010;SDS011;59543;37.950;-122.338;2022-11-30T09:38:33;4.05;;;1.80;;
70010;SDS011;59543;37.950;-122.338;2022-11-30T09:41:00;5.68;;;2.03;;
70010;SDS011;59543;37.950;-122.338;2022-11-30T09:46:29;6.30;;;2.47;;
70010;SDS011;59543;37.950;-122.338;2022-11-30T09:49:03;7.53;;;2.35;;
70010;SDS011;59543;37.950;-122.338;2022-11-30T09:54:12;7.38;;;2.60;;
70010;SDS011;59543;37.950;-122.338;2022-11-30T09:56:41;7.70;;;2.40;;
70010;SDS011;59543;37.950;-122.338;2022-11-30T09:59:13;5.32;;;2.45;;
70010;SDS011;59543;37.950;-122.338;2022-11-30T10:01:46;6.18;;;2.58;;
70010;SDS011;59543;37.950;-122.338;2022-11-30T10:04:25;5.05;;;2.13;;
70010;SDS011;59543;37.950;-122.338;2022-11-30T10:13:25;8.63;;;2.05;;
70010;SDS011;59543;37.950;-122.338;2022-11-30T10:18:36;6.63;;;2.05;;
70010;SDS011;59543;37.950;-122.338;2022-11-30T10:24:37;3.55;;;1.88;;
70010;SDS011;59543;37.950;-122.338;2022-11-30T10:27:31;3.75;;;1.85;;
70010;SDS011;59543;37.950;-122.338;2022-11-30T10:29:55;5.68;;;2.15;;
70010;SDS011;59543;37.950;-122.338;2022-11-30T10:32:28;7.82;;;2.08;;
70010;SDS011;59543;37.950;-122.338;2022-11-30T10:35:02;7.37;;;2.63;;
70010;SDS011;59543;37.950;-122.338;2022-11-30T10:37:40;10.35;;;2.38;;
70010;SDS011;59543;37.950;-122.338;2022-11-30T10:40:19;6.82;;;2.00;;
70010;SDS011;59543;37.950;-122.338;2022-11-30T10:43:20;5.28;;;2.00;;
70010;SDS011;59543;37.950;-122.338;2022-11-30T10:45:50;7.78;;;2.10;;
70010;SDS011;59543;37.950;-122.338;2022-11-30T10:48:36;5.70;;;1.95;;
70010;SDS011;59543;37.950;-122.338;2022-11-30T10:51:07;1.23;;;0.43;;
70010;SDS011;59543;37.950;-122.338;2022-11-30T10:53:36;5.45;;;2.13;;
70010;SDS011;59543;37.950;-122.338;2022-11-30T10:56:09;4.25;;;1.67;;
70010;SDS011;59543;37.950;-122.338;2022-11-30T10:58:38;6.18;;;1.85;;
70010;SDS011;59543;37.950;-122.338;2022-11-30T11:06:41;4.93;;;2.05;;
70010;SDS011;59543;37.950;-122.338;2022-11-30T11:11:56;9.15;;;2.17;;
70010;SDS011;59543;37.950;-122.338;2022-11-30T11:14:25;3.72;;;1.92;;
70010;SDS011;59543;37.950;-122.338;2022-11-30T11:16:56;6.80;;;2.00;;
70010;SDS011;59543;37.950;-122.338;2022-11-30T11:22:26;8.35;;;2.70;;
70010;SDS011;59543;37.950;-122.338;2022-11-30T11:24:52;6.82;;;3.00;;
70010;SDS011;59543;37.950;-122.338;2022-11-30T11:27:32;1.23;;;0.50;;
70010;SDS011;59543;37.950;-122.338;2022-11-30T11:32:59;11.95;;;3.50;;
70010;SDS011;59543;37.950;-122.338;2022-11-30T11:38:25;6.38;;;2.78;;
70010;SDS011;59543;37.950;-122.338;2022-11-30T11:41:07;7.55;;;2.63;;
70010;SDS011;59543;37.950;-122.338;2022-11-30T11:46:59;2.83;;;0.65;;
70010;SDS011;59543;37.950;-122.338;2022-11-30T11:49:26;6.18;;;2.42;;
70010;SDS011;59543;37.950;-122.338;2022-11-30T11:52:16;4.70;;;2.47;;
70010;SDS011;59543;37.950;-122.338;2022-11-30T11:54:49;6.18;;;2.65;;
70010;SDS011;59543;37.950;-122.338;2022-11-30T11:57:21;6.50;;;3.22;;
70010;SDS011;59543;37.950;-122.338;2022-11-30T12:00:03;8.55;;;3.30;;
70010;SDS011;59543;37.950;-122.338;2022-11-30T12:02:36;9.95;;;3.00;;
70010;SDS011;59543;37.950;-122.338;2022-11-30T12:05:26;2.40;;;0.70;;
70010;SDS011;59543;37.950;-122.338;2022-11-30T12:08:01;10.07;;;3.00;;
70010;SDS011;59543;37.950;-122.338;2022-11-30T12:12:59;10.20;;;2.83;;
70010;SDS011;59543;37.950;-122.338;2022-11-30T12:18:17;9.00;;;2.40;;
70010;SDS011;59543;37.950;-122.338;2022-11-30T12:23:26;9.25;;;2.65;;
70010;SDS011;59543;37.950;-122.338;2022-11-30T12:31:15;7.65;;;2.28;;
70010;SDS011;59543;37.950;-122.338;2022-11-30T12:34:17;10.25;;;2.53;;
70010;SDS011;59543;37.950;-122.338;2022-11-30T12:37:01;11.45;;;2.35;;
70010;SDS011;59543;37.950;-122.338;2022-11-30T12:41:58;5.05;;;1.85;;
70010;SDS011;59543;37.950;-122.338;2022-11-30T12:44:33;11.30;;;2.90;;
70010;SDS011;59543;37.950;-122.338;2022-11-30T12:52:57;12.93;;;2.40;;
70010;SDS011;59543;37.950;-122.338;2022-11-30T12:56:07;1.55;;;0.60;;
70010;SDS011;59543;37.950;-122.338;2022-11-30T13:07:09;11.68;;;2.80;;
70010;SDS011;59543;37.950;-122.338;2022-11-30T13:09:59;8.82;;;2.60;;
70010;SDS011;59543;37.950;-122.338;2022-11-30T13:12:38;11.02;;;2.53;;
70010;SDS011;59543;37.950;-122.338;2022-11-30T13:15:18;5.15;;;2.35;;
70010;SDS011;59543;37.950;-122.338;2022-11-30T13:17:55;13.98;;;2.40;;
70010;SDS011;59543;37.950;-122.338;2022-11-30T13:20:24;8.65;;;2.78;;
70010;SDS011;59543;37.950;-122.338;2022-11-30T13:23:04;2.03;;;0.65;;
70010;SDS011;59543;37.950;-122.338;2022-11-30T13:33:58;4.88;;;2.38;;
70010;SDS011;59543;37.950;-122.338;2022-11-30T13:36:33;7.40;;;2.50;;
70010;SDS011;59543;37.950;-122.338;2022-11-30T13:50:17;0.73;;;0.45;;
70010;SDS011;59543;37.950;-122.338;2022-11-30T13:58:16;4.90;;;2.30;;
70010;SDS011;59543;37.950;-122.338;2022-11-30T14:06:50;9.63;;;2.70;;
70010;SDS011;59543;37.950;-122.338;2022-11-30T14:17:28;8.95;;;2.30;;
70010;SDS011;59543;37.950;-122.338;2022-11-30T14:20:16;8.20;;;0.80;;
70010;SDS011;59543;37.950;-122.338;2022-11-30T14:22:43;11.43;;;2.95;;
70010;SDS011;59543;37.950;-122.338;2022-11-30T14:27:46;10.80;;;3.13;;
70010;SDS011;59543;37.950;-122.338;2022-11-30T14:30:16;8.88;;;2.85;;
70010;SDS011;59543;37.950;-122.338;2022-11-30T14:32:50;10.38;;;2.95;;
70010;SDS011;59543;37.950;-122.338;2022-11-30T14:35:21;6.10;;;2.58;;
70010;SDS011;59543;37.950;-122.338;2022-11-30T14:37:58;8.95;;;3.15;;
70010;SDS011;59543;37.950;-122.338;2022-11-30T14:40:26;7.88;;;0.88;;
70010;SDS011;59543;37.950;-122.338;2022-11-30T14:43:00;2.15;;;0.80;;
70010;SDS011;59543;37.950;-122.338;2022-11-30T14:45:29;9.98;;;2.80;;
70010;SDS011;59543;37.950;-122.338;2022-11-30T14:50:30;1.20;;;0.65;;
70010;SDS011;59543;37.950;-122.338;2022-11-30T14:53:00;10.95;;;3.15;;
70010;SDS011;59543;37.950;-122.338;2022-11-30T14:55:55;7.97;;;3.42;;
70010;SDS011;59543;37.950;-122.338;2022-11-30T14:58:31;6.68;;;2.88;;
70010;SDS011;59543;37.950;-122.338;2022-11-30T15:01:18;11.70;;;3.05;;
70010;SDS011;59543;37.950;-122.338;2022-11-30T15:03:48;7.22;;;2.60;;
70010;SDS011;59543;37.950;-122.338;2022-11-30T15:06:17;5.75;;;2.53;;
70010;SDS011;59543;37.950;-122.338;2022-11-30T15:08:55;6.18;;;3.10;;
70010;SDS011;59543;37.950;-122.338;2022-11-30T15:11:23;9.18;;;3.35;;
70010;SDS011;59543;37.950;-122.338;2022-11-30T15:13:52;13.02;;;3.70;;
70010;SDS011;59543;37.950;-122.338;2022-11-30T15:16:31;6.10;;;3.05;;
70010;SDS011;59543;37.950;-122.338;2022-11-30T15:21:25;5.45;;;1.30;;
70010;SDS011;59543;37.950;-122.338;2022-11-30T15:23:53;1.52;;;0.70;;
70010;SDS011;59543;37.950;-122.338;2022-11-30T15:26:31;11.98;;;3.75;;
70010;SDS011;59543;37.950;-122.338;2022-11-30T15:29:04;16.27;;;5.45;;
70010;SDS011;59543;37.950;-122.338;2022-11-30T15:31:47;14.85;;;5.47;;
70010;SDS011;59543;37.950;-122.338;2022-11-30T15:34:19;13.18;;;5.38;;
70010;SDS011;59543;37.950;-122.338;2022-11-30T15:36:46;14.27;;;5.05;;
70010;SDS011;59543;37.950;-122.338;2022-11-30T15:41:42;14.43;;;4.80;;
70010;SDS011;59543;37.950;-122.338;2022-11-30T15:44:20;11.55;;;4.75;;
70010;SDS011;59543;37.950;-122.338;2022-11-30T15:47:02;10.55;;;4.63;;
70010;SDS011;59543;37.950;-122.338;2022-11-30T15:49:32;2.67;;;1.17;;
70010;SDS011;59543;37.950;-122.338;2022-11-30T15:54:47;13.85;;;4.28;;
70010;SDS011;59543;37.950;-122.338;2022-11-30T15:57:14;2.15;;;0.80;;
70010;SDS011;59543;37.950;-122.338;2022-11-30T15:59:41;13.82;;;4.45;;
70010;SDS011;59543;37.950;-122.338;2022-11-30T16:02:27;15.07;;;4.13;;
70010;SDS011;59543;37.950;-122.338;2022-11-30T16:07:57;15.00;;;4.20;;
70010;SDS011;59543;37.950;-122.338;2022-11-30T16:10:35;12.88;;;4.43;;
70010;SDS011;59543;37.950;-122.338;2022-11-30T16:13:03;14.30;;;4.88;;
70010;SDS011;59543;37.950;-122.338;2022-11-30T16:15:31;12.43;;;4.60;;
70010;SDS011;59543;37.950;-122.338;2022-11-30T16:18:15;10.10;;;4.28;;
70010;SDS011;59543;37.950;-122.338;2022-11-30T16:20:53;15.00;;;4.93;;
70010;SDS011;59543;37.950;-122.338;2022-11-30T16:23:21;17.33;;;5.03;;
70010;SDS011;59543;37.950;-122.338;2022-11-30T16:25:48;10.48;;;4.32;;
70010;SDS011;59543;37.950;-122.338;2022-11-30T16:28:16;13.38;;;4.40;;
70010;SDS011;59543;37.950;-122.338;2022-11-30T16:30:43;2.78;;;1.17;;
70010;SDS011;59543;37.950;-122.338;2022-11-30T16:33:18;12.50;;;5.03;;
70010;SDS011;59543;37.950;-122.338;2022-11-30T16:38:36;18.88;;;6.00;;
70010;SDS011;59543;37.950;-122.338;2022-11-30T16:41:10;13.85;;;5.28;;
70010;SDS011;59543;37.950;-122.338;2022-11-30T16:43:39;14.80;;;5.57;;
70010;SDS011;59543;37.950;-122.338;2022-11-30T16:46:13;13.07;;;5.30;;
70010;SDS011;59543;37.950;-122.338;2022-11-30T16:48:41;20.92;;;5.03;;
70010;SDS011;59543;37.950;-122.338;2022-11-30T16:51:15;13.30;;;4.60;;
70010;SDS011;59543;37.950;-122.338;2022-11-30T16:53:52;15.88;;;5.25;;
70010;SDS011;59543;37.950;-122.338;2022-11-30T16:56:18;16.00;;;5.88;;
70010;SDS011;59543;37.950;-122.338;2022-11-30T16:58:45;15.07;;;5.78;;
70010;SDS011;59543;37.950;-122.338;2022-11-30T17:01:54;14.63;;;5.45;;
70010;SDS011;59543;37.950;-122.338;2022-11-30T17:04:11;15.70;;;5.90;;
70010;SDS011;59543;37.950;-122.338;2022-11-30T17:06:37;14.65;;;5.22;;
70010;SDS011;59543;37.950;-122.338;2022-11-30T17:11:30;22.75;;;5.45;;
70010;SDS011;59543;37.950;-122.338;2022-11-30T17:13:59;16.60;;;5.32;;
70010;SDS011;59543;37.950;-122.338;2022-11-30T17:16:26;15.20;;;5.35;;
70010;SDS011;59543;37.950;-122.338;2022-11-30T17:18:52;18.65;;;6.25;;
70010;SDS011;59543;37.950;-122.338;2022-11-30T17:23:47;18.38;;;6.20;;
70010;SDS011;59543;37.950;-122.338;2022-11-30T17:28:39;20.38;;;5.85;;
70010;SDS011;59543;37.950;-122.338;2022-11-30T17:31:06;15.15;;;5.78;;
70010;SDS011;59543;37.950;-122.338;2022-11-30T17:33:34;16.52;;;5.97;;
70010;SDS011;59543;37.950;-122.338;2022-11-30T17:36:02;20.95;;;6.13;;
70010;SDS011;59543;37.950;-122.338;2022-11-30T17:38:30;16.83;;;5.68;;
70010;SDS011;59543;37.950;-122.338;2022-11-30T17:40:58;13.93;;;4.97;;
70010;SDS011;59543;37.950;-122.338;2022-11-30T17:43:25;11.57;;;4.45;;
70010;SDS011;59543;37.950;-122.338;2022-11-30T17:48:17;16.83;;;4.90;;
70010;SDS011;59543;37.950;-122.338;2022-11-30T17:50:43;13.32;;;4.50;;
70010;SDS011;59543;37.950;-122.338;2022-11-30T17:55:37;14.13;;;4.20;;
70010;SDS011;59543;37.950;-122.338;2022-11-30T17:58:04;19.50;;;4.40;;
70010;SDS011;59543;37.950;-122.338;2022-11-30T18:02:56;10.77;;;3.78;;
70010;SDS011;59543;37.950;-122.338;2022-11-30T18:05:22;13.65;;;3.65;;